createdAt,value
2023-05-20T00:01:07.327Z,27.31
2023-05-20T00:03:34.394Z,27.26
2023-05-20T00:06:01.363Z,27.76
2023-05-20T00:08:28.152Z,27.74
2023-05-20T00:10:54.888Z,27.75
2023-05-20T00:13:21.659Z,27.65
2023-05-20T00:15:48.465Z,27.78
2023-05-20T00:18:15.331Z,27.87
2023-05-20T00:20:42.343Z,28.05
2023-05-20T00:23:09.099Z,28.19
2023-05-20T00:25:36.058Z,28.36
2023-05-20T00:28:03.137Z,28.16
2023-05-20T00:30:29.930Z,28.16
2023-05-20T00:32:56.764Z,28.13
2023-05-20T00:35:24.323Z,28.03
2023-05-20T00:37:51.091Z,28.10
2023-05-20T00:40:18.253Z,27.79
2023-05-20T00:42:45.098Z,27.91
2023-05-20T00:45:11.994Z,27.37
2023-05-20T00:47:39.772Z,27.66
2023-05-20T00:50:08.501Z,27.56
2023-05-20T00:52:35.391Z,27.58
2023-05-20T00:55:02.253Z,27.85
2023-05-20T00:57:29.330Z,27.75
2023-05-20T00:59:56.177Z,27.63
2023-05-20T01:02:24.250Z,27.77
2023-05-20T01:04:51.177Z,27.72
2023-05-20T01:07:18.299Z,27.38
2023-05-20T01:09:46.820Z,27.36
2023-05-20T01:12:29.645Z,27.46
2023-05-20T01:15:02.313Z,27.38
2023-05-20T01:17:31.264Z,26.82
2023-05-20T01:19:58.528Z,26.73
2023-05-20T01:22:26.924Z,26.82
2023-05-20T01:24:54.053Z,27.00
2023-05-20T01:27:22.562Z,27.23
2023-05-20T01:29:52.729Z,27.56
2023-05-20T01:32:33.201Z,27.52
2023-05-20T01:35:00.306Z,27.31
2023-05-20T01:37:27.679Z,27.18
2023-05-20T01:39:54.743Z,27.27
2023-05-20T01:42:21.799Z,27.08
2023-05-20T01:44:48.587Z,27.12
2023-05-20T01:47:15.394Z,27.10
2023-05-20T01:49:42.248Z,26.92
2023-05-20T01:52:09.166Z,26.82
2023-05-20T01:54:36.379Z,26.78
2023-05-20T01:57:03.253Z,26.86
2023-05-20T01:59:30.241Z,26.87
2023-05-20T02:01:57.158Z,26.89
2023-05-20T02:04:24.028Z,26.71
2023-05-20T02:06:51.073Z,26.38
2023-05-20T02:09:18.979Z,26.99
2023-05-20T02:11:46.289Z,26.87
2023-05-20T02:14:13.372Z,26.70
2023-05-20T02:16:41.313Z,27.14
2023-05-20T02:19:12.986Z,27.04
2023-05-20T02:21:41.367Z,26.78
2023-05-20T02:24:10.194Z,26.80
2023-05-20T02:26:37.225Z,26.65
2023-05-20T02:29:03.997Z,26.72
2023-05-20T02:31:31.288Z,26.71
2023-05-20T02:33:58.214Z,26.94
2023-05-20T02:36:25.164Z,26.89
2023-05-20T02:38:54.328Z,27.08
2023-05-20T02:41:21.729Z,27.25
2023-05-20T02:43:48.721Z,27.16
2023-05-20T02:46:16.145Z,26.91
2023-05-20T02:48:43.042Z,26.85
2023-05-20T02:51:10.080Z,26.87
2023-05-20T02:53:37.014Z,27.00
2023-05-20T02:56:04.781Z,27.10
2023-05-20T02:58:31.571Z,27.25
2023-05-20T03:00:58.847Z,27.45
2023-05-20T03:03:27.169Z,27.52
2023-05-20T03:05:54.255Z,27.54
2023-05-20T03:08:22.620Z,27.56
2023-05-20T03:10:50.952Z,27.54
2023-05-20T03:13:17.762Z,27.53
2023-05-20T03:15:46.198Z,27.33
2023-05-20T03:18:14.042Z,27.00
2023-05-20T03:20:41.756Z,27.24
2023-05-20T03:23:09.151Z,27.25
2023-05-20T03:25:37.351Z,27.23
2023-05-20T03:28:04.718Z,27.43
2023-05-20T03:30:31.624Z,27.39
2023-05-20T03:32:58.825Z,27.26
2023-05-20T03:35:26.301Z,27.59
2023-05-20T03:37:53.404Z,27.43
2023-05-20T03:40:21.933Z,27.61
2023-05-20T03:42:50.938Z,28.06
2023-05-20T03:45:18.973Z,28.41
2023-05-20T03:47:54.321Z,29.08
2023-05-20T03:50:22.134Z,28.82
2023-05-20T03:52:49.226Z,28.86
2023-05-20T03:55:17.388Z,29.61
2023-05-20T03:57:44.160Z,29.68
2023-05-20T04:00:12.239Z,29.57
2023-05-20T04:02:43.172Z,29.83
2023-05-20T04:05:10.795Z,30.12
2023-05-20T04:07:38.413Z,29.63
2023-05-20T04:10:07.560Z,30.43
2023-05-20T04:12:36.094Z,30.88
2023-05-20T04:15:03.380Z,31.13
2023-05-20T04:17:37.721Z,30.81
2023-05-20T04:20:07.315Z,30.88
2023-05-20T04:22:35.531Z,31.10
2023-05-20T04:25:04.752Z,31.19
2023-05-20T04:27:33.740Z,31.56
2023-05-20T04:30:02.397Z,31.47
2023-05-20T04:32:31.120Z,31.46
2023-05-20T04:34:58.287Z,31.40
2023-05-20T04:37:25.397Z,31.25
2023-05-20T04:39:52.659Z,31.30
2023-05-20T04:42:21.668Z,31.47
2023-05-20T04:44:48.955Z,31.66
2023-05-20T04:47:15.838Z,32.07
2023-05-20T04:49:42.825Z,32.17
2023-05-20T04:52:09.954Z,32.23
2023-05-20T04:54:40.376Z,32.25
2023-05-20T04:57:07.674Z,32.17
2023-05-20T04:59:35.158Z,32.30
2023-05-20T05:02:02.901Z,32.23
2023-05-20T05:04:29.813Z,32.24
2023-05-20T05:06:57.018Z,32.58
2023-05-20T05:09:25.404Z,32.66
2023-05-20T05:11:52.851Z,32.74
2023-05-20T05:14:22.899Z,33.14
2023-05-20T05:16:52.394Z,33.52
2023-05-20T05:19:20.510Z,33.69
2023-05-20T05:21:48.237Z,33.66
2023-05-20T05:24:15.059Z,33.25
2023-05-20T05:26:41.986Z,32.93
2023-05-20T05:29:11.631Z,32.90
2023-05-20T05:31:38.801Z,32.94
2023-05-20T05:34:08.066Z,33.11
2023-05-20T05:36:40.261Z,33.01
2023-05-20T05:39:07.398Z,33.05
2023-05-20T05:41:35.054Z,32.92
2023-05-20T05:44:02.008Z,33.01
2023-05-20T05:46:28.996Z,33.33
2023-05-20T05:48:55.990Z,33.45
2023-05-20T05:51:24.992Z,33.52
2023-05-20T05:53:52.624Z,33.76
2023-05-20T05:56:19.776Z,33.92
2023-05-20T05:58:48.415Z,34.20
2023-05-20T06:01:15.755Z,34.01
2023-05-20T06:03:42.741Z,33.93
2023-05-20T06:06:09.677Z,33.84
2023-05-20T06:08:36.636Z,34.16
2023-05-20T06:11:03.658Z,34.72
2023-05-20T06:13:30.945Z,35.32
2023-05-20T06:15:58.270Z,35.48
2023-05-20T06:18:26.189Z,35.50
2023-05-20T06:21:00.057Z,35.23
2023-05-20T06:23:28.691Z,35.59
2023-05-20T06:25:59.476Z,36.08
2023-05-20T06:28:27.214Z,36.54
2023-05-20T06:30:57.358Z,36.67
2023-05-20T06:36:08.721Z,33.76
2023-05-20T06:38:35.462Z,35.40
2023-05-20T06:41:02.563Z,35.37
2023-05-20T06:43:32.224Z,35.42
2023-05-20T06:46:09.365Z,35.43
2023-05-20T06:48:45.118Z,35.51
2023-05-20T06:51:12.467Z,35.40
2023-05-20T06:53:39.403Z,35.55
2023-05-20T06:56:06.204Z,35.86
2023-05-20T06:58:33.149Z,36.12
2023-05-20T07:01:00.180Z,36.52
2023-05-20T07:03:27.094Z,36.74
2023-05-20T07:05:54.371Z,36.36
2023-05-20T07:08:22.862Z,36.41
2023-05-20T07:10:49.520Z,36.57
2023-05-20T07:13:23.456Z,36.90
2023-05-20T07:15:51.102Z,37.13
2023-05-20T07:18:17.709Z,37.22
2023-05-20T07:20:49.906Z,37.21
2023-05-20T07:23:40.139Z,37.26
2023-05-20T07:26:06.861Z,37.27
2023-05-20T07:28:35.996Z,37.16
2023-05-20T07:31:03.995Z,37.16
2023-05-20T07:33:33.358Z,37.31
2023-05-20T07:36:00.077Z,37.37
2023-05-20T07:38:26.857Z,37.22
2023-05-20T07:41:00.235Z,37.01
2023-05-20T07:43:28.842Z,36.84
2023-05-20T07:45:56.271Z,37.01
2023-05-20T07:48:23.056Z,37.27
2023-05-20T07:50:50.043Z,37.45
2023-05-20T07:53:18.005Z,37.44
2023-05-20T07:55:44.760Z,37.09
2023-05-20T07:58:12.369Z,37.31
2023-05-20T08:00:40.413Z,37.71
2023-05-20T08:03:07.568Z,37.79
2023-05-20T08:05:45.698Z,37.72
2023-05-20T08:08:13.099Z,37.60
2023-05-20T08:10:47.725Z,37.77
2023-05-20T08:13:14.785Z,37.37
2023-05-20T08:15:42.135Z,37.43
2023-05-20T08:18:08.864Z,37.88
2023-05-20T08:20:36.100Z,38.22
2023-05-20T08:23:02.839Z,38.62
2023-05-20T08:25:30.079Z,38.60
2023-05-20T08:27:57.173Z,38.36
2023-05-20T08:30:24.574Z,38.50
2023-05-20T08:32:51.498Z,38.31
2023-05-20T08:35:20.455Z,38.33
2023-05-20T08:37:47.856Z,38.63
2023-05-20T08:40:14.718Z,38.81
2023-05-20T08:42:43.150Z,39.12
2023-05-20T08:45:10.728Z,39.37
2023-05-20T08:47:40.226Z,39.50
2023-05-20T08:50:07.624Z,39.49
2023-05-20T08:52:34.784Z,39.74
2023-05-20T08:55:01.372Z,39.77
2023-05-20T08:57:28.443Z,39.36
2023-05-20T08:59:56.693Z,39.20
2023-05-20T09:02:23.455Z,39.31
2023-05-20T09:04:50.126Z,39.97
2023-05-20T09:07:28.357Z,39.95
2023-05-20T09:09:55.083Z,39.68
2023-05-20T09:12:23.030Z,39.28
2023-05-20T09:14:50.598Z,39.05
2023-05-20T09:17:17.835Z,38.70
2023-05-20T09:19:44.579Z,38.47
2023-05-20T09:22:11.500Z,38.47
2023-05-20T09:24:38.068Z,38.53
2023-05-20T09:27:04.727Z,38.80
2023-05-20T09:29:32.935Z,38.82
2023-05-20T09:32:01.450Z,38.75
2023-05-20T09:34:28.622Z,38.48
2023-05-20T09:36:55.266Z,38.31
2023-05-20T09:39:25.463Z,38.21
2023-05-20T09:41:56.058Z,38.06
2023-05-20T09:44:23.221Z,37.89
2023-05-20T09:46:50.234Z,37.67
2023-05-20T09:49:17.401Z,37.90
2023-05-20T09:51:44.045Z,38.24
2023-05-20T09:54:11.844Z,38.48
2023-05-20T09:56:40.524Z,38.30
2023-05-20T09:59:07.230Z,37.70
2023-05-20T10:01:34.367Z,37.51
2023-05-20T10:04:01.282Z,37.62
2023-05-20T10:06:58.391Z,37.95
2023-05-20T10:09:56.221Z,37.82
2023-05-20T10:12:49.235Z,38.14
2023-05-20T10:15:26.724Z,38.37
2023-05-20T10:18:44.313Z,38.07
2023-05-20T10:21:16.204Z,38.09
2023-05-20T10:23:42.861Z,38.39
2023-05-20T10:26:09.600Z,38.56
2023-05-20T10:28:37.541Z,38.68
2023-05-20T10:31:18.455Z,38.86
2023-05-20T10:33:45.489Z,38.55
2023-05-20T10:36:26.358Z,38.70
2023-05-20T10:38:54.644Z,39.34
2023-05-20T10:41:24.153Z,39.30
2023-05-20T10:44:01.740Z,39.54
2023-05-20T10:46:35.365Z,39.70
2023-05-20T10:49:24.094Z,39.87
2023-05-20T10:51:54.914Z,38.92
2023-05-20T10:54:22.552Z,38.63
2023-05-20T10:56:53.090Z,38.93
2023-05-20T10:59:21.080Z,39.58
2023-05-20T11:01:47.978Z,39.89
2023-05-20T11:08:28.964Z,39.23
2023-05-20T11:10:57.282Z,39.28
2023-05-20T11:21:43.606Z,38.51
2023-05-20T11:24:10.382Z,38.71
2023-05-20T11:26:37.034Z,38.90
2023-05-20T11:29:04.185Z,39.18
2023-05-20T11:31:32.025Z,39.50
2023-05-20T11:34:00.950Z,39.33
2023-05-20T11:36:28.437Z,38.76
2023-05-20T11:38:58.702Z,38.50
2023-05-20T11:41:26.069Z,38.25
2023-05-20T11:43:59.174Z,38.25
2023-05-20T11:46:27.233Z,38.30
2023-05-20T11:48:54.362Z,38.45
2023-05-20T11:51:27.398Z,38.75
2023-05-20T11:54:00.274Z,38.81
2023-05-20T11:56:33.956Z,38.73
2023-05-20T11:59:00.878Z,38.68
2023-05-20T12:01:30.839Z,38.51
2023-05-20T12:03:57.672Z,38.20
2023-05-20T12:06:24.423Z,38.41
2023-05-20T12:08:51.378Z,38.63
2023-05-20T12:11:18.307Z,38.90
2023-05-20T12:13:44.964Z,38.63
2023-05-20T12:16:11.572Z,38.42
2023-05-20T12:18:38.310Z,37.73
2023-05-20T12:21:05.265Z,37.33
2023-05-20T12:23:33.515Z,37.04
2023-05-20T12:26:00.468Z,36.78
2023-05-20T12:28:29.617Z,36.53
2023-05-20T12:30:56.431Z,36.87
2023-05-20T12:33:23.441Z,36.59
2023-05-20T12:35:50.051Z,36.49
2023-05-20T12:38:16.645Z,36.26
2023-05-20T12:40:43.482Z,36.48
2023-05-20T12:43:10.111Z,36.93
2023-05-20T12:45:36.850Z,37.00
2023-05-20T12:48:04.128Z,37.07
2023-05-20T12:50:31.558Z,37.54
2023-05-20T12:52:58.231Z,38.03
2023-05-20T12:55:24.792Z,38.36
2023-05-20T12:57:51.986Z,38.04
2023-05-20T13:00:18.654Z,37.36
2023-05-20T13:02:45.709Z,37.35
2023-05-20T13:05:12.785Z,37.13
2023-05-20T13:07:40.053Z,37.05
2023-05-20T13:10:07.379Z,36.97
2023-05-20T13:12:34.571Z,36.81
2023-05-20T13:15:01.272Z,36.35
2023-05-20T13:17:28.177Z,36.44
2023-05-20T13:19:55.018Z,36.61
2023-05-20T13:22:22.367Z,36.80
2023-05-20T13:24:49.075Z,36.38
2023-05-20T13:27:15.893Z,36.66
2023-05-20T13:29:42.980Z,36.12
2023-05-20T13:32:09.752Z,35.87
2023-05-20T13:34:38.011Z,35.78
2023-05-20T13:37:05.369Z,36.39
2023-05-20T13:39:32.165Z,36.50
2023-05-20T13:41:58.929Z,36.37
2023-05-20T13:44:25.516Z,36.59
2023-05-20T13:46:52.207Z,36.37
2023-05-20T13:49:19.993Z,36.41
2023-05-20T13:51:46.784Z,36.14
2023-05-20T13:54:13.333Z,35.77
2023-05-20T13:56:39.898Z,35.91
2023-05-20T13:59:06.531Z,35.87
2023-05-20T14:01:33.705Z,36.14
2023-05-20T14:04:00.403Z,36.11
2023-05-20T14:06:28.706Z,35.96
2023-05-20T14:08:55.862Z,35.81
2023-05-20T14:11:22.540Z,35.81
2023-05-20T14:13:49.153Z,35.88
2023-05-20T14:16:15.867Z,35.85
2023-05-20T14:18:42.661Z,36.02
2023-05-20T14:21:09.218Z,36.01
2023-05-20T14:23:36.125Z,36.12
2023-05-20T14:26:02.684Z,35.99
2023-05-20T14:28:30.527Z,35.33
2023-05-20T14:30:57.101Z,35.12
2023-05-20T14:33:23.642Z,35.37
2023-05-20T14:35:50.541Z,35.31
2023-05-20T14:38:18.170Z,35.49
2023-05-20T14:40:44.674Z,35.19
2023-05-20T14:43:11.269Z,35.05
2023-05-20T14:45:38.030Z,35.40
2023-05-20T14:48:05.036Z,35.14
2023-05-20T14:50:31.900Z,35.12
2023-05-20T14:52:58.833Z,34.92
2023-05-20T14:55:25.391Z,34.66
2023-05-20T14:57:52.231Z,34.61
2023-05-20T15:00:18.999Z,34.66
2023-05-20T15:02:46.289Z,34.63
2023-05-20T15:05:13.574Z,34.67
2023-05-20T15:07:40.947Z,34.83
2023-05-20T15:10:08.249Z,35.17
2023-05-20T15:12:35.207Z,35.22
2023-05-20T15:15:02.595Z,35.18
2023-05-20T15:17:31.146Z,34.87
2023-05-20T15:19:57.908Z,34.84
2023-05-20T15:22:25.588Z,34.60
2023-05-20T15:24:52.200Z,34.53
2023-05-20T15:27:19.293Z,34.59
2023-05-20T15:29:46.125Z,34.46
2023-05-20T15:32:12.942Z,34.29
2023-05-20T15:34:40.077Z,34.29
2023-05-20T15:37:06.738Z,34.31
2023-05-20T15:39:36.306Z,34.30
2023-05-20T15:42:03.427Z,34.28
2023-05-20T15:44:30.251Z,34.22
2023-05-20T15:46:57.206Z,34.11
2023-05-20T15:49:26.665Z,33.92
2023-05-20T15:52:02.925Z,33.80
2023-05-20T15:54:30.477Z,33.86
2023-05-20T15:56:57.600Z,33.68
2023-05-20T15:59:24.681Z,33.47
2023-05-20T16:01:54.328Z,33.29
2023-05-20T16:04:21.299Z,32.74
2023-05-20T16:06:48.227Z,32.72
2023-05-20T16:09:15.285Z,32.75
2023-05-20T16:11:42.080Z,33.02
2023-05-20T16:14:08.694Z,33.22
2023-05-20T16:16:36.180Z,33.18
2023-05-20T16:19:03.535Z,33.24
2023-05-20T16:21:31.118Z,33.31
2023-05-20T16:23:57.966Z,33.41
2023-05-20T16:26:25.508Z,33.33
2023-05-20T16:28:52.267Z,33.25
2023-05-20T16:31:19.018Z,33.45
2023-05-20T16:33:45.642Z,33.31
2023-05-20T16:36:12.315Z,32.88
2023-05-20T16:38:39.006Z,32.59
2023-05-20T16:41:06.016Z,32.41
2023-05-20T16:43:33.774Z,32.46
2023-05-20T16:46:00.512Z,32.39
2023-05-20T16:48:27.092Z,32.46
2023-05-20T16:50:54.008Z,32.43
2023-05-20T16:53:20.853Z,32.38
2023-05-20T16:55:47.376Z,32.45
2023-05-20T16:58:14.220Z,32.47
2023-05-20T17:00:41.029Z,32.47
2023-05-20T17:03:07.912Z,32.40
2023-05-20T17:05:35.856Z,32.06
2023-05-20T17:08:02.820Z,32.13
2023-05-20T17:10:30.329Z,32.31
2023-05-20T17:12:56.940Z,32.04
2023-05-20T17:15:24.772Z,31.95
2023-05-20T17:17:51.347Z,31.98
2023-05-20T17:20:18.323Z,32.00
2023-05-20T17:22:48.337Z,31.82
2023-05-20T17:25:16.327Z,31.64
2023-05-20T17:27:43.477Z,31.70
2023-05-20T17:30:10.888Z,31.66
2023-05-20T17:32:38.316Z,31.62
2023-05-20T17:35:06.118Z,31.62
2023-05-20T17:37:32.860Z,31.53
2023-05-20T17:39:59.874Z,30.84
2023-05-20T17:42:26.425Z,30.27
2023-05-20T17:44:53.051Z,30.06
2023-05-20T17:47:20.123Z,30.03
2023-05-20T17:49:46.690Z,29.92
2023-05-20T17:52:13.230Z,30.25
2023-05-20T17:54:39.880Z,30.09
2023-05-20T17:57:06.543Z,30.28
2023-05-20T17:59:36.164Z,30.36
2023-05-20T18:02:05.430Z,30.35
2023-05-20T18:04:32.041Z,30.13
2023-05-20T18:06:58.685Z,29.87
2023-05-20T18:09:25.332Z,29.56
2023-05-20T18:11:53.131Z,29.59
2023-05-20T18:14:22.207Z,29.81
2023-05-20T18:16:53.962Z,29.84
2023-05-20T18:19:20.622Z,29.80
2023-05-20T18:21:47.360Z,29.41
2023-05-20T18:24:15.942Z,29.16
2023-05-20T18:26:42.732Z,29.10
2023-05-20T18:29:11.729Z,29.02
2023-05-20T18:31:38.644Z,29.22
2023-05-20T18:34:05.545Z,29.46
2023-05-20T18:36:33.218Z,29.50
2023-05-20T18:39:00.053Z,29.62
2023-05-20T18:41:43.185Z,29.60
2023-05-20T18:44:14.646Z,29.41
2023-05-20T18:46:41.739Z,29.57
2023-05-20T18:49:10.008Z,29.57
2023-05-20T18:53:09.147Z,26.11
2023-05-20T18:55:35.816Z,27.94
2023-05-20T18:58:02.599Z,28.33
2023-05-20T19:00:29.464Z,28.38
2023-05-20T19:02:59.022Z,28.30
2023-05-20T19:05:26.083Z,28.31
2023-05-20T19:07:52.838Z,27.94
2023-05-20T19:10:21.495Z,27.93
2023-05-20T19:12:48.459Z,27.90
2023-05-20T19:15:16.084Z,27.70
2023-05-20T19:17:42.754Z,27.74
2023-05-20T19:20:09.956Z,27.83
2023-05-20T19:22:37.463Z,27.83
2023-05-20T19:25:04.988Z,27.83
2023-05-20T19:27:31.738Z,27.90
2023-05-20T19:29:58.754Z,27.88
2023-05-20T19:32:25.426Z,27.86
2023-05-20T19:34:52.093Z,27.95
2023-05-20T19:37:19.616Z,28.00
2023-05-20T19:39:47.218Z,27.90
2023-05-20T19:42:13.855Z,27.98
2023-05-20T19:44:40.908Z,27.82
2023-05-20T19:47:07.543Z,27.73
2023-05-20T19:49:34.526Z,27.71
2023-05-20T19:52:01.217Z,27.75
2023-05-20T19:54:28.085Z,27.79
2023-05-20T19:56:54.768Z,27.71
2023-05-20T19:59:21.304Z,27.77
2023-05-20T20:01:48.002Z,27.65
2023-05-20T20:04:17.976Z,27.68
2023-05-20T20:06:44.785Z,27.68
2023-05-20T20:09:11.834Z,27.55
2023-05-20T20:11:38.493Z,27.36
2023-05-20T20:14:05.531Z,27.32
2023-05-20T20:16:32.980Z,27.37
2023-05-20T20:18:59.646Z,27.56
2023-05-20T20:21:26.269Z,27.20
2023-05-20T20:23:53.003Z,27.14
2023-05-20T20:26:22.861Z,27.20
2023-05-20T20:28:51.654Z,27.15
2023-05-20T20:31:18.306Z,27.03
2023-05-20T20:33:46.771Z,26.99
2023-05-20T20:36:13.596Z,26.76
2023-05-20T20:38:45.917Z,26.63
2023-05-20T20:41:15.446Z,26.46
2023-05-20T20:43:44.209Z,26.44
2023-05-20T20:46:14.272Z,26.36
2023-05-20T20:48:45.056Z,26.15
2023-05-20T20:51:15.213Z,26.24
2023-05-20T20:53:42.037Z,26.14
2023-05-20T20:56:09.188Z,25.95
2023-05-20T20:58:37.338Z,26.00
2023-05-20T21:01:04.991Z,26.05
2023-05-20T21:03:36.347Z,26.16
2023-05-20T21:06:03.048Z,26.05
2023-05-20T21:08:31.353Z,25.97
2023-05-20T21:10:59.089Z,25.98
2023-05-20T21:13:26.933Z,26.11
2023-05-20T21:15:54.374Z,26.08
2023-05-20T21:18:21.261Z,26.02
2023-05-20T21:20:51.747Z,26.09
2023-05-20T21:23:19.639Z,26.18
2023-05-20T21:25:46.510Z,26.28
2023-05-20T21:28:14.104Z,26.03
2023-05-20T21:30:40.904Z,25.82
2023-05-20T21:33:08.215Z,25.92
2023-05-20T21:35:35.711Z,25.98
2023-05-20T21:38:02.437Z,25.79
2023-05-20T21:40:29.167Z,26.00
2023-05-20T21:42:55.910Z,26.09
2023-05-20T21:45:22.649Z,25.95
2023-05-20T21:47:49.297Z,25.93
2023-05-20T21:50:15.995Z,25.94
2023-05-20T21:52:43.069Z,25.99
2023-05-20T21:55:09.935Z,25.83
2023-05-20T21:57:37.340Z,25.84
2023-05-20T22:00:14.724Z,25.64
2023-05-20T22:02:41.823Z,25.45
2023-05-20T22:05:08.980Z,25.46
2023-05-20T22:07:35.870Z,25.36
2023-05-20T22:10:02.949Z,25.27
2023-05-20T22:12:30.371Z,25.06
2023-05-20T22:14:56.970Z,25.33
2023-05-20T22:17:24.314Z,25.55
2023-05-20T22:19:51.153Z,25.65
2023-05-20T22:22:17.700Z,25.76
2023-05-20T22:24:44.437Z,25.49
2023-05-20T22:27:13.265Z,25.34
2023-05-20T22:29:42.784Z,25.19
2023-05-20T22:32:09.491Z,25.07
2023-05-20T22:34:37.895Z,24.96
2023-05-20T22:37:06.481Z,24.95
2023-05-20T22:39:33.328Z,25.07
2023-05-20T22:41:59.932Z,25.18
2023-05-20T22:44:26.635Z,25.16
2023-05-20T22:46:53.943Z,25.05
2023-05-20T22:49:23.031Z,24.81
2023-05-20T22:51:52.025Z,24.99
2023-05-20T22:54:18.667Z,25.00
2023-05-20T22:56:45.253Z,25.11
2023-05-20T22:59:12.036Z,25.03
2023-05-20T23:01:38.852Z,24.86
2023-05-20T23:04:05.806Z,25.03
2023-05-20T23:06:32.853Z,24.80
2023-05-20T23:08:59.681Z,24.54
2023-05-20T23:11:26.547Z,24.36
2023-05-20T23:13:53.547Z,24.32
2023-05-20T23:16:21.081Z,24.32
2023-05-20T23:18:47.938Z,24.55
2023-05-20T23:21:14.805Z,24.66
2023-05-20T23:23:41.519Z,24.68
2023-05-20T23:26:08.321Z,24.70
2023-05-20T23:28:35.215Z,24.51
2023-05-20T23:31:02.024Z,24.28
2023-05-20T23:33:29.907Z,24.30
2023-05-20T23:35:56.667Z,24.31
2023-05-20T23:38:23.728Z,24.43
2023-05-20T23:40:50.433Z,24.34
2023-05-20T23:43:17.032Z,24.34
2023-05-20T23:45:44.032Z,24.17
2023-05-20T23:48:12.556Z,24.03
2023-05-20T23:50:39.979Z,24.23
2023-05-20T23:53:06.677Z,24.36
2023-05-20T23:55:34.405Z,24.56
2023-05-20T23:58:01.289Z,24.68
